Time;durP1;ratioP1;P1;durP2;ratioP2;P2;SDS_P1;SDS_P2;PMS_P1;PMS_P2;Temp;Humidity;BMP_temperature;BMP_pressure;BME280_temperature;BME280_humidity;BME280_pressure;Samples;Min_cycle;Max_cycle;Signal;HPM_P1;HPM_P2
2023/10/11 00:02:59;;;;;;;53.80;22.50;;;16.50;83.50;;;;;;5066734;28;20059;-65
2023/10/11 00:05:35;;;;;;;47.45;21.60;;;16.50;83.40;;;;;;5068292;28;20520;-65
2023/10/11 00:08:03;;;;;;;60.45;23.48;;;16.50;83.40;;;;;;5068458;28;20056;-64
2023/10/11 00:10:29;;;;;;;55.55;23.58;;;16.50;83.30;;;;;;5069475;28;20052;-65
2023/10/11 00:12:58;;;;;;;55.63;23.20;;;16.50;83.50;;;;;;5067793;28;20529;-65
2023/10/11 00:15:29;;;;;;;50.55;23.10;;;16.50;83.50;;;;;;5069622;28;20127;-65
2023/10/11 00:17:57;;;;;;;57.87;24.57;;;16.50;83.60;;;;;;5070387;28;20045;-64
2023/10/11 00:23:04;;;;;;;54.53;23.85;;;16.50;83.50;;;;;;5071353;28;20044;-65
2023/10/11 00:25:30;;;;;;;56.35;23.83;;;16.50;83.70;;;;;;5070819;28;20052;-65
2023/10/11 00:27:59;;;;;;;59.15;24.00;;;16.50;83.70;;;;;;5071179;28;20072;-65
2023/10/11 00:30:25;;;;;;;54.45;23.42;;;16.50;83.60;;;;;;5071103;28;20135;-66
2023/10/11 00:32:52;;;;;;;52.30;24.30;;;16.50;83.70;;;;;;5070549;28;20055;-66
2023/10/11 00:35:18;;;;;;;58.45;23.85;;;16.50;83.70;;;;;;5070770;28;20078;-65
2023/10/11 00:37:51;;;;;;;55.88;24.73;;;16.50;83.70;;;;;;5070370;28;20123;-65
2023/10/11 00:40:33;;;;;;;56.15;25.55;;;16.50;83.60;;;;;;5070003;28;20040;-65
2023/10/11 00:43:01;;;;;;;59.88;25.45;;;16.50;83.70;;;;;;5058510;28;20475;-65
2023/10/11 00:45:31;;;;;;;60.63;25.23;;;16.40;83.70;;;;;;5070802;28;20426;-65
2023/10/11 00:48:06;;;;;;;61.40;24.17;;;16.40;83.70;;;;;;5070243;28;20122;-65
2023/10/11 00:50:32;;;;;;;56.63;25.13;;;16.40;83.80;;;;;;5070787;28;20040;-65
2023/10/11 00:53:00;;;;;;;59.15;25.45;;;16.40;83.90;;;;;;5053141;28;20435;-65
2023/10/11 00:55:29;;;;;;;56.95;24.60;;;16.40;84.00;;;;;;5070503;28;20062;-65
2023/10/11 00:57:56;;;;;;;65.80;25.85;;;16.40;84.00;;;;;;5070339;28;20048;-65
2023/10/11 01:00:23;;;;;;;64.15;26.02;;;16.40;84.20;;;;;;5070456;28;20056;-65
2023/10/11 01:02:51;;;;;;;60.08;25.15;;;16.40;84.20;;;;;;5070677;28;20484;-65
2023/10/11 01:05:22;;;;;;;68.15;26.15;;;16.40;84.30;;;;;;5052748;28;20048;-65
2023/10/11 01:07:50;;;;;;;59.23;26.50;;;16.30;84.30;;;;;;5070278;28;20056;-65
2023/10/11 01:10:16;;;;;;;59.00;24.15;;;16.30;84.50;;;;;;5070059;28;20307;-65
2023/10/11 01:12:42;;;;;;;67.40;26.45;;;16.20;84.50;;;;;;5069720;28;20458;-66
2023/10/11 01:15:11;;;;;;;67.40;25.35;;;16.20;84.50;;;;;;5070314;28;20060;-65
2023/10/11 01:17:38;;;;;;;65.43;26.17;;;16.20;84.50;;;;;;5070191;28;20102;-65
2023/10/11 01:20:17;;;;;;;48.97;24.85;;;16.20;84.50;;;;;;5054670;28;20055;-65
2023/10/11 01:22:44;;;;;;;59.47;26.17;;;16.20;84.50;;;;;;5052007;28;20049;-65
2023/10/11 01:25:18;;;;;;;59.85;23.63;;;16.20;84.70;;;;;;5069703;28;20063;-65
2023/10/11 01:27:45;;;;;;;62.22;25.27;;;16.20;84.50;;;;;;5069881;28;20047;-65
2023/10/11 01:30:11;;;;;;;66.57;24.90;;;16.20;84.60;;;;;;5070083;28;20053;-66
2023/10/11 01:32:38;;;;;;;61.10;24.85;;;16.20;84.60;;;;;;5069808;28;20123;-65
2023/10/11 01:35:07;;;;;;;52.72;23.60;;;16.20;84.70;;;;;;5069390;28;20048;-66
2023/10/11 01:37:41;;;;;;;66.78;25.42;;;16.20;84.70;;;;;;5069503;28;20059;-65
2023/10/11 01:40:31;;;;;;;65.00;25.15;;;16.20;84.80;;;;;;5070012;28;20045;-65
2023/10/11 01:42:57;;;;;;;60.00;24.58;;;16.20;84.80;;;;;;5056990;28;20052;-65
2023/10/11 01:45:25;;;;;;;61.63;25.52;;;16.20;84.80;;;;;;5069121;28;20124;-66
2023/10/11 01:47:53;;;;;;;55.13;24.45;;;16.20;84.90;;;;;;5069605;28;20074;-65
2023/10/11 01:50:19;;;;;;;56.22;24.05;;;16.20;84.80;;;;;;5069342;28;20495;-65
2023/10/11 01:52:47;;;;;;;55.83;23.38;;;16.10;84.80;;;;;;5069860;28;20044;-65
2023/10/11 01:55:14;;;;;;;58.88;24.65;;;16.10;84.90;;;;;;5068448;28;20478;-65
2023/10/11 01:57:49;;;;;;;59.55;24.08;;;16.20;84.80;;;;;;5050693;28;20052;-65
2023/10/11 02:00:16;;;;;;;54.50;24.23;;;16.10;84.70;;;;;;5068496;28;20083;-65
2023/10/11 02:02:47;;;;;;;58.22;23.90;;;16.10;84.70;;;;;;5069212;28;20079;-65
2023/10/11 02:05:15;;;;;;;59.70;23.67;;;16.10;84.80;;;;;;5068877;28;20090;-65
2023/10/11 02:07:40;;;;;;;55.10;23.45;;;16.10;84.80;;;;;;5069215;28;20048;-65
2023/10/11 02:10:08;;;;;;;57.17;22.73;;;16.10;84.80;;;;;;5069376;28;20449;-66
2023/10/11 02:12:44;;;;;;;57.28;23.23;;;16.10;84.70;;;;;;5068907;28;20052;-65
2023/10/11 02:15:21;;;;;;;58.33;23.50;;;16.10;84.70;;;;;;5068998;28;20069;-65
2023/10/11 02:17:51;;;;;;;58.75;23.23;;;16.10;84.80;;;;;;5069376;28;20052;-65
2023/10/11 02:20:21;;;;;;;58.78;22.50;;;16.00;84.90;;;;;;5054717;28;20051;-66
2023/10/11 02:22:51;;;;;;;55.28;23.05;;;16.00;84.90;;;;;;5067171;28;20564;-65
2023/10/11 02:25:21;;;;;;;55.08;22.83;;;16.00;85.00;;;;;;5050354;28;20037;-65
2023/10/11 02:27:49;;;;;;;67.97;23.05;;;16.00;85.00;;;;;;5068260;28;20052;-65
2023/10/11 02:30:21;;;;;;;55.35;23.52;;;16.00;84.90;;;;;;5068969;28;20041;-65
2023/10/11 02:32:52;;;;;;;54.75;22.05;;;16.00;85.00;;;;;;5069101;28;20087;-65
2023/10/11 02:35:19;;;;;;;59.17;23.13;;;16.00;85.00;;;;;;5069581;28;20056;-65
2023/10/11 02:37:46;;;;;;;46.20;21.23;;;16.00;85.10;;;;;;5069193;28;20045;-65
2023/10/11 02:40:16;;;;;;;57.60;23.08;;;16.00;85.10;;;;;;5068673;28;20102;-65
2023/10/11 02:42:49;;;;;;;56.03;22.58;;;16.00;85.00;;;;;;5068265;28;20052;-65
2023/10/11 02:45:19;;;;;;;44.78;21.17;;;16.00;84.90;;;;;;5069122;28;20410;-65
2023/10/11 02:47:59;;;;;;;59.78;22.33;;;16.00;85.00;;;;;;5069582;28;20090;-65
2023/10/11 02:50:28;;;;;;;55.75;22.17;;;16.00;85.00;;;;;;5068535;28;20044;-65
2023/10/11 02:53:05;;;;;;;54.35;21.50;;;15.90;85.00;;;;;;5050514;28;20608;-65
2023/10/11 02:55:31;;;;;;;54.08;22.55;;;15.90;85.10;;;;;;5066965;28;20048;-65
2023/10/11 02:58:06;;;;;;;53.97;21.08;;;15.90;85.10;;;;;;5069035;28;20049;-65
2023/10/11 03:00:36;;;;;;;51.40;20.73;;;15.90;85.00;;;;;;5069162;28;20128;-65
2023/10/11 03:03:07;;;;;;;45.63;20.60;;;15.90;85.00;;;;;;5051953;28;20106;-65
2023/10/11 03:05:37;;;;;;;58.53;21.00;;;15.90;85.00;;;;;;5073195;28;20291;-65
2023/10/11 03:08:18;;;;;;;60.25;21.17;;;15.90;85.10;;;;;;5054912;28;20055;-65
2023/10/11 03:10:53;;;;;;;52.28;20.80;;;15.80;85.10;;;;;;5072679;28;20048;-65
2023/10/11 03:13:29;;;;;;;49.88;19.85;;;15.90;85.00;;;;;;5070047;28;20487;-64
2023/10/11 03:15:56;;;;;;;51.53;19.52;;;15.90;84.90;;;;;;5073203;28;20056;-65
2023/10/11 03:18:25;;;;;;;53.47;18.88;;;15.90;85.00;;;;;;5066850;28;20056;-65
2023/10/11 03:21:06;;;;;;;49.33;20.33;;;15.90;85.00;;;;;;5055019;28;20060;-65
2023/10/11 03:23:36;;;;;;;48.83;19.70;;;15.90;84.90;;;;;;5071880;28;20135;-65
2023/10/11 03:26:13;;;;;;;50.03;19.75;;;15.90;84.90;;;;;;5072095;28;20131;-65
2023/10/11 03:28:42;;;;;;;51.78;19.55;;;15.90;84.90;;;;;;5072172;28;20142;-65
2023/10/11 03:31:08;;;;;;;47.50;18.92;;;15.90;84.80;;;;;;5072109;28;20057;-65
2023/10/11 03:33:36;;;;;;;51.95;18.75;;;16.00;84.80;;;;;;5071722;28;20059;-65
2023/10/11 03:36:05;;;;;;;44.00;19.10;;;16.00;84.70;;;;;;5071421;28;20052;-65
2023/10/11 03:38:33;;;;;;;48.63;18.02;;;16.00;84.70;;;;;;5071715;28;20076;-65
2023/10/11 03:41:14;;;;;;;45.58;17.85;;;16.00;84.60;;;;;;5071753;28;20067;-65
2023/10/11 03:43:41;;;;;;;44.97;17.70;;;16.00;84.50;;;;;;5070717;28;20048;-65
2023/10/11 03:46:09;;;;;;;49.63;18.52;;;16.00;84.40;;;;;;5053853;28;20087;-65
2023/10/11 03:48:44;;;;;;;46.70;18.02;;;16.00;84.30;;;;;;5070823;28;20395;-64
2023/10/11 03:51:12;;;;;;;40.85;18.08;;;16.00;84.30;;;;;;5071620;28;20083;-65
2023/10/11 03:53:40;;;;;;;44.08;17.20;;;16.00;84.20;;;;;;5072007;28;20055;-65
2023/10/11 03:56:07;;;;;;;41.30;16.20;;;16.00;84.20;;;;;;5071975;28;20052;-66
2023/10/11 03:58:36;;;;;;;50.00;17.50;;;16.00;84.10;;;;;;5071072;28;20044;-65
2023/10/11 04:03:33;;;;;;;47.90;16.73;;;16.00;84.00;;;;;;5076163;28;20410;-64
2023/10/11 04:05:59;;;;;;;47.83;17.02;;;16.00;83.90;;;;;;5072230;28;20051;-65
2023/10/11 04:08:26;;;;;;;45.10;17.25;;;16.00;83.90;;;;;;5071752;28;20052;-65
2023/10/11 04:10:53;;;;;;;43.00;16.10;;;16.00;83.90;;;;;;5071046;28;20127;-65
2023/10/11 04:13:25;;;;;;;43.00;16.60;;;16.00;83.90;;;;;;5071437;28;20082;-65
2023/10/11 04:15:54;;;;;;;40.90;16.00;;;16.00;83.70;;;;;;5071517;28;20060;-65
2023/10/11 04:23:55;;;;;;;43.63;15.73;;;16.00;83.70;;;;;;5042425;28;20052;-65
2023/10/11 04:26:32;;;;;;;43.72;16.27;;;16.00;83.70;;;;;;5070004;28;20056;-64
2023/10/11 04:29:06;;;;;;;38.03;15.52;;;16.00;83.70;;;;;;5067159;28;20047;-65
2023/10/11 04:34:38;;;;;;;44.60;15.40;;;16.00;83.60;;;;;;5037062;28;20095;-65
2023/10/11 04:37:16;;;;;;;40.25;14.75;;;16.00;83.50;;;;;;5046320;28;20565;-65
2023/10/11 04:39:51;;;;;;;37.40;14.50;;;16.00;83.50;;;;;;5047630;28;20417;-65
2023/10/11 04:42:21;;;;;;;38.60;14.57;;;16.00;83.40;;;;;;5030885;28;20514;-65
2023/10/11 04:44:54;;;;;;;40.30;14.88;;;16.00;83.40;;;;;;5050381;28;20091;-65
2023/10/11 04:47:23;;;;;;;38.67;14.57;;;16.00;83.30;;;;;;5047720;28;20124;-65
2023/10/11 04:49:48;;;;;;;48.58;15.15;;;16.10;83.20;;;;;;5047981;28;20045;-65
2023/10/11 04:52:22;;;;;;;44.70;14.45;;;16.10;83.20;;;;;;5048562;28;20045;-65
2023/10/11 04:54:54;;;;;;;36.83;14.43;;;16.00;83.10;;;;;;5049786;28;20526;-65
2023/10/11 04:57:40;;;;;;;36.88;14.35;;;16.00;83.10;;;;;;5049562;28;20510;-65
2023/10/11 05:00:10;;;;;;;41.55;14.50;;;16.10;83.00;;;;;;5049984;28;20463;-64
2023/10/11 05:02:38;;;;;;;43.30;15.23;;;16.10;83.00;;;;;;5050701;28;20063;-65
2023/10/11 05:05:10;;;;;;;42.90;14.50;;;16.10;83.00;;;;;;5050005;28;20053;-65
2023/10/11 05:07:42;;;;;;;39.13;14.65;;;16.10;83.00;;;;;;5050917;28;20115;-65
2023/10/11 05:12:57;;;;;;;35.40;14.55;;;16.10;82.80;;;;;;5050486;28;20102;-65
2023/10/11 05:15:29;;;;;;;41.22;14.43;;;16.10;82.80;;;;;;5050031;28;20694;-65
2023/10/11 05:18:06;;;;;;;39.58;14.40;;;16.10;82.80;;;;;;5050537;28;20124;-65
2023/10/11 05:23:11;;;;;;;33.70;13.98;;;16.10;82.80;;;;;;5050230;28;20154;-65
2023/10/11 05:25:39;;;;;;;41.38;14.93;;;16.10;82.80;;;;;;5031914;28;20480;-65
2023/10/11 05:28:26;;;;;;;35.67;14.07;;;16.10;82.80;;;;;;5049919;28;20055;-65
2023/10/11 05:31:19;;;;;;;38.47;14.93;;;16.10;82.90;;;;;;5042551;28;20151;-64
2023/10/11 05:33:57;;;;;;;42.40;14.55;;;16.10;82.90;;;;;;5065894;28;20048;-65
2023/10/11 05:36:40;;;;;;;40.40;15.02;;;16.10;82.90;;;;;;5069935;28;20049;-65
2023/10/11 05:52:48;;;;;;;38.75;15.00;;;16.10;83.20;;;;;;5069767;28;20063;-65
2023/10/11 05:55:16;;;;;;;41.88;16.17;;;16.10;83.20;;;;;;5069192;28;20315;-65
2023/10/11 05:57:44;;;;;;;40.08;16.05;;;16.10;83.20;;;;;;5069140;28;20153;-65
2023/10/11 06:00:23;;;;;;;49.38;16.48;;;16.10;83.30;;;;;;5069186;28;20041;-65
2023/10/11 06:02:50;;;;;;;46.28;16.30;;;16.10;83.30;;;;;;5035694;28;20514;-65
2023/10/11 06:05:17;;;;;;;36.17;14.38;;;16.10;83.30;;;;;;5069126;28;20052;-65
2023/10/11 06:07:42;;;;;;;37.60;15.10;;;16.20;83.30;;;;;;5069145;28;20060;-65
2023/10/11 06:10:09;;;;;;;39.75;14.90;;;16.20;83.30;;;;;;5069100;28;20049;-65
2023/10/11 06:12:35;;;;;;;39.70;15.32;;;16.20;83.40;;;;;;5069352;28;20171;-65
2023/10/11 06:15:05;;;;;;;37.30;14.68;;;16.20;83.30;;;;;;5051180;28;20542;-65
2023/10/11 06:17:41;;;;;;;43.22;16.35;;;16.20;83.30;;;;;;5069189;28;20049;-65
2023/10/11 06:20:23;;;;;;;41.33;14.75;;;16.30;83.30;;;;;;5069091;28;20052;-65
2023/10/11 06:22:50;;;;;;;42.67;15.35;;;16.30;83.20;;;;;;5069579;28;20442;-65
2023/10/11 06:25:22;;;;;;;40.35;14.52;;;16.40;83.20;;;;;;5057707;28;20037;-64
2023/10/11 06:30:25;;;;;;;42.85;15.35;;;16.40;83.10;;;;;;5060234;28;20068;-65
2023/10/11 06:32:52;;;;;;;43.50;14.88;;;16.40;83.00;;;;;;5056936;28;20088;-65
2023/10/11 06:35:24;;;;;;;35.63;14.63;;;16.40;83.00;;;;;;5063525;28;20052;-65
2023/10/11 06:37:56;;;;;;;40.40;15.05;;;16.40;83.00;;;;;;5043213;28;20064;-65
2023/10/11 06:43:17;;;;;;;34.50;14.77;;;16.40;83.00;;;;;;5024706;28;20056;-65
2023/10/11 06:45:44;;;;;;;40.35;14.82;;;16.40;83.00;;;;;;5063260;28;20044;-65
2023/10/11 06:48:16;;;;;;;40.60;14.27;;;16.40;82.90;;;;;;5060729;28;20056;-65
2023/10/11 06:50:41;;;;;;;38.47;14.65;;;16.50;83.00;;;;;;5065840;28;20040;-65
2023/10/11 06:53:09;;;;;;;43.92;14.80;;;16.50;83.00;;;;;;5060751;28;20047;-65
2023/10/11 06:55:47;;;;;;;41.00;15.45;;;16.50;83.00;;;;;;5056892;28;20591;-65
2023/10/11 06:58:19;;;;;;;31.08;14.65;;;16.50;83.00;;;;;;5056923;28;20195;-65
2023/10/11 07:00:47;;;;;;;;;;;16.50;83.00;;;;;;5054924;28;20102;-65
2023/10/11 07:05:46;;;;;;;35.80;13.80;;;16.40;83.10;;;;;;5053632;28;20063;-65
2023/10/11 07:08:20;;;;;;;30.90;12.93;;;16.40;83.10;;;;;;5053255;28;20588;-64
2023/10/11 07:16:21;;;;;;;29.38;12.82;;;16.50;82.90;;;;;;5052835;28;20059;-65
2023/10/11 07:18:47;;;;;;;30.88;12.48;;;16.50;82.70;;;;;;5051467;28;20055;-65
2023/10/11 07:21:19;;;;;;;36.95;13.57;;;16.60;82.60;;;;;;5052014;28;20052;-65
2023/10/11 07:26:23;;;;;;;;;;;16.60;82.60;;;;;;5053068;28;20506;-64
2023/10/11 07:28:52;;;;;;;29.75;13.63;;;16.60;82.70;;;;;;5053871;28;20365;-65
2023/10/11 07:31:19;;;;;;;30.77;13.23;;;16.70;82.60;;;;;;5053054;28;20139;-65
2023/10/11 07:33:50;;;;;;;31.77;13.75;;;16.70;82.70;;;;;;5030188;28;20871;-65
2023/10/11 07:36:19;;;;;;;34.60;14.82;;;16.70;82.70;;;;;;5053007;28;20554;-65
2023/10/11 07:38:54;;;;;;;34.38;14.68;;;16.70;82.80;;;;;;5054150;28;20956;-65
2023/10/11 07:41:29;;;;;;;39.30;15.27;;;16.80;82.70;;;;;;5051799;28;20143;-64
2023/10/11 07:43:56;;;;;;;35.22;14.93;;;16.80;82.80;;;;;;5051322;28;20041;-64
2023/10/11 07:46:22;;;;;;;34.72;14.27;;;16.90;82.80;;;;;;5052418;28;20061;-65
2023/10/11 07:48:48;;;;;;;29.38;13.52;;;16.90;82.70;;;;;;5052575;28;20435;-65
2023/10/11 07:51:14;;;;;;;33.58;13.75;;;16.90;82.50;;;;;;5052354;28;20082;-65
2023/10/11 07:53:43;;;;;;;41.17;14.35;;;17.00;82.40;;;;;;5054505;28;20133;-65
2023/10/11 07:56:10;;;;;;;38.80;14.38;;;17.00;82.30;;;;;;5051982;28;20044;-65
2023/10/11 07:58:45;;;;;;;36.05;12.93;;;17.00;82.20;;;;;;5051579;28;20709;-65
2023/10/11 08:01:30;;;;;;;36.13;13.80;;;17.00;82.10;;;;;;5050712;28;20088;-65
2023/10/11 08:03:57;;;;;;;31.77;13.10;;;17.00;82.10;;;;;;5051522;28;20071;-65
2023/10/11 08:06:26;;;;;;;32.00;12.88;;;17.00;82.10;;;;;;5054126;28;20048;-64
2023/10/11 08:09:05;;;;;;;38.40;13.38;;;17.00;82.00;;;;;;5052738;28;20628;-65
2023/10/11 08:11:45;;;;;;;29.48;13.32;;;17.00;81.90;;;;;;5051270;28;20071;-65
2023/10/11 08:14:15;;;;;;;37.25;14.15;;;17.00;81.70;;;;;;5050992;28;20150;-65
2023/10/11 08:16:47;;;;;;;30.63;13.10;;;17.00;81.90;;;;;;5051926;28;20064;-64
2023/10/11 08:19:13;;;;;;;32.25;13.18;;;17.00;81.90;;;;;;5052757;28;20331;-65
2023/10/11 08:21:39;;;;;;;34.72;13.95;;;17.00;81.80;;;;;;5049207;28;20048;-65
2023/10/11 08:24:15;;;;;;;29.20;13.10;;;17.00;81.70;;;;;;5052440;28;21024;-64
2023/10/11 08:26:42;;;;;;;37.53;14.00;;;17.00;81.60;;;;;;5054831;28;20491;-66
2023/10/11 08:29:17;;;;;;;29.60;13.25;;;17.00;81.70;;;;;;5054622;28;20360;-66
2023/10/11 08:31:44;;;;;;;33.80;13.85;;;17.00;81.70;;;;;;5054828;28;20131;-64
2023/10/11 08:34:14;;;;;;;39.00;14.18;;;17.00;81.90;;;;;;5054124;28;20094;-64
2023/10/11 08:36:42;;;;;;;32.20;14.13;;;17.00;81.90;;;;;;5054297;28;20056;-65
2023/10/11 08:39:08;;;;;;;36.40;13.27;;;17.00;82.00;;;;;;5051813;28;20615;-65
2023/10/11 08:41:34;;;;;;;31.60;13.40;;;17.00;81.80;;;;;;5051987;28;20101;-65
2023/10/11 08:44:15;;;;;;;26.60;12.57;;;17.00;81.80;;;;;;5054067;28;20037;-65
2023/10/11 08:46:45;;;;;;;29.85;12.27;;;17.00;81.70;;;;;;5035557;28;20060;-65
2023/10/11 08:49:14;;;;;;;22.63;10.85;;;17.00;81.40;;;;;;5054513;28;20581;-64
2023/10/11 08:51:43;;;;;;;23.90;11.20;;;17.00;80.80;;;;;;5053207;28;20136;-65
2023/10/11 08:54:13;;;;;;;26.73;10.30;;;17.00;80.50;;;;;;5054614;28;20052;-65
2023/10/11 08:56:39;;;;;;;18.30;9.20;;;17.00;79.30;;;;;;5052198;28;20048;-64
2023/10/11 08:59:05;;;;;;;19.40;9.23;;;17.00;79.00;;;;;;5051094;28;20052;-65
2023/10/11 09:01:36;;;;;;;15.75;8.65;;;17.00;78.90;;;;;;5052159;28;20056;-64
2023/10/11 09:04:11;;;;;;;16.85;9.75;;;17.00;78.70;;;;;;5054366;28;20070;-65
2023/10/11 09:06:42;;;;;;;14.68;9.40;;;16.90;78.90;;;;;;5054645;28;20059;-64
2023/10/11 09:09:14;;;;;;;16.17;9.05;;;16.90;79.20;;;;;;5054783;28;20084;-64
2023/10/11 09:11:55;;;;;;;17.45;8.88;;;16.90;79.30;;;;;;5053344;28;20067;-66
2023/10/11 09:14:23;;;;;;;20.13;9.00;;;16.90;79.20;;;;;;5053564;28;20047;-65
2023/10/11 09:17:02;;;;;;;11.93;8.05;;;16.90;79.30;;;;;;5051535;28;20060;-65
2023/10/11 09:19:29;;;;;;;15.27;7.90;;;17.00;79.10;;;;;;5052040;28;20135;-65
2023/10/11 09:22:03;;;;;;;18.65;7.50;;;17.00;79.20;;;;;;5033715;28;20048;-64
2023/10/11 09:24:29;;;;;;;20.17;8.38;;;17.00;79.00;;;;;;5049054;28;20060;-65
2023/10/11 09:29:47;;;;;;;18.92;8.05;;;17.20;78.90;;;;;;5047280;28;20060;-65
2023/10/11 09:32:13;;;;;;;16.83;8.37;;;17.20;78.70;;;;;;5046383;28;20063;-65
2023/10/11 09:34:42;;;;;;;10.90;8.02;;;17.20;78.70;;;;;;5052225;28;20048;-65
2023/10/11 09:37:11;;;;;;;18.50;8.48;;;17.20;78.90;;;;;;5053347;28;20636;-65
2023/10/11 09:39:43;;;;;;;16.52;8.73;;;17.20;78.80;;;;;;5053913;28;20040;-65
2023/10/11 09:42:15;;;;;;;16.10;8.70;;;17.20;79.00;;;;;;5053203;28;20669;-64
2023/10/11 09:44:46;;;;;;;18.27;8.07;;;17.20;79.00;;;;;;5054216;28;20082;-65
2023/10/11 09:47:21;;;;;;;16.30;8.93;;;17.30;79.20;;;;;;5053110;28;20408;-65
2023/10/11 09:49:52;;;;;;;16.05;8.35;;;17.20;79.30;;;;;;5053235;28;20139;-65
2023/10/11 09:52:23;;;;;;;20.95;8.23;;;17.20;79.30;;;;;;5052275;28;20052;-65
2023/10/11 09:54:51;;;;;;;15.55;8.55;;;17.20;79.30;;;;;;5052902;28;20080;-65
2023/10/11 09:57:41;;;;;;;16.02;7.85;;;17.30;79.30;;;;;;5052387;28;20487;-66
2023/10/11 10:00:34;;;;;;;22.47;8.30;;;17.40;78.90;;;;;;5053080;28;20525;-65
2023/10/11 10:03:04;;;;;;;14.50;7.47;;;17.40;79.20;;;;;;5050998;28;20287;-65
2023/10/11 10:06:10;;;;;;;20.63;8.15;;;17.50;79.00;;;;;;5051030;28;20554;-65
2023/10/11 10:08:36;;;;;;;20.88;7.32;;;17.50;78.90;;;;;;5052812;28;20048;-65
2023/10/11 10:11:02;;;;;;;17.52;8.30;;;17.50;79.00;;;;;;5051918;28;20462;-65
2023/10/11 10:13:29;;;;;;;19.83;8.80;;;17.50;79.60;;;;;;5051707;28;20052;-66
2023/10/11 10:15:57;;;;;;;17.83;8.30;;;17.50;80.10;;;;;;5050083;28;20412;-64
2023/10/11 10:18:24;;;;;;;17.70;8.68;;;17.40;80.60;;;;;;5049956;28;20051;-65
2023/10/11 10:21:02;;;;;;;17.98;7.25;;;17.30;80.80;;;;;;5051632;28;21457;-64
2023/10/11 10:23:29;;;;;;;17.58;8.50;;;17.20;81.20;;;;;;5053203;28;20128;-66
2023/10/11 10:26:05;;;;;;;18.30;8.18;;;17.20;81.40;;;;;;5050859;28;20051;-65
2023/10/11 10:28:36;;;;;;;17.30;7.82;;;17.20;81.70;;;;;;5051701;28;20053;-65
2023/10/11 10:31:09;;;;;;;20.90;7.90;;;17.20;81.80;;;;;;5049476;28;20056;-65
2023/10/11 10:33:36;;;;;;;15.00;7.55;;;17.20;81.80;;;;;;5044985;28;20063;-66
2023/10/11 10:36:31;;;;;;;20.58;8.18;;;17.30;81.70;;;;;;5049928;28;20153;-65
2023/10/11 10:39:00;;;;;;;14.88;7.90;;;17.40;82.00;;;;;;5035949;28;20074;-64
2023/10/11 10:41:33;;;;;;;15.73;7.60;;;17.40;81.60;;;;;;5049378;28;20044;-65
2023/10/11 10:44:16;;;;;;;14.85;7.30;;;17.50;81.60;;;;;;5050444;28;20056;-65
2023/10/11 10:46:59;;;;;;;13.25;6.38;;;17.50;81.40;;;;;;5048489;28;20518;-65
2023/10/11 10:49:42;;;;;;;14.93;7.20;;;17.60;80.90;;;;;;5051804;28;21396;-65
2023/10/11 10:52:18;;;;;;;16.60;6.63;;;17.60;80.50;;;;;;5049291;28;20572;-65
2023/10/11 10:55:04;;;;;;;15.65;6.43;;;17.70;80.10;;;;;;5049030;28;20056;-65
2023/10/11 10:57:36;;;;;;;14.05;6.88;;;17.80;79.80;;;;;;5049894;28;20056;-64
2023/10/11 11:00:05;;;;;;;11.80;6.65;;;17.80;79.90;;;;;;5050257;28;20503;-65
2023/10/11 11:02:37;;;;;;;12.98;5.93;;;17.90;79.90;;;;;;5048216;28;20059;-65
2023/10/11 11:05:13;;;;;;;14.88;6.38;;;18.00;80.20;;;;;;5042092;28;20052;-65
2023/10/11 11:07:40;;;;;;;15.43;5.80;;;18.00;79.40;;;;;;5049284;28;20052;-64
2023/10/11 11:10:06;;;;;;;12.88;5.72;;;18.00;79.20;;;;;;5048938;28;20036;-65
2023/10/11 11:12:32;;;;;;;11.98;5.57;;;18.00;79.40;;;;;;5046851;28;20056;-64
2023/10/11 11:14:58;;;;;;;11.80;4.60;;;18.00;78.70;;;;;;5048385;28;20052;-64
2023/10/11 11:17:45;;;;;;;12.02;4.82;;;18.00;78.70;;;;;;5048968;28;20048;-65
2023/10/11 11:22:46;;;;;;;13.98;5.20;;;18.00;79.00;;;;;;5050140;28;20060;-66
2023/10/11 11:25:26;;;;;;;12.95;5.05;;;18.00;78.90;;;;;;5052158;28;20061;-65
2023/10/11 11:28:41;;;;;;;15.77;5.50;;;18.00;78.50;;;;;;5050179;28;21037;-65
2023/10/11 11:33:49;;;;;;;12.10;4.85;;;18.00;78.70;;;;;;5053955;28;20072;-65
2023/10/11 11:36:31;;;;;;;17.20;5.40;;;18.00;78.70;;;;;;5053723;28;20060;-65
2023/10/11 11:39:17;;;;;;;14.30;5.13;;;18.10;78.50;;;;;;5054389;28;20059;-65
2023/10/11 11:41:58;;;;;;;13.10;4.53;;;18.10;78.70;;;;;;5052924;28;20059;-64
2023/10/11 11:44:27;;;;;;;9.45;4.53;;;18.10;78.60;;;;;;5051932;28;20127;-65
2023/10/11 11:46:55;;;;;;;13.20;5.18;;;18.10;78.50;;;;;;5053461;28;20072;-64
2023/10/11 11:49:26;;;;;;;9.35;4.47;;;18.10;78.10;;;;;;5053395;28;20107;-65
2023/10/11 11:51:53;;;;;;;12.65;5.05;;;18.10;78.50;;;;;;5051986;28;20049;-64
2023/10/11 11:54:20;;;;;;;11.43;4.80;;;18.10;78.30;;;;;;5054732;28;20538;-65
2023/10/11 11:56:46;;;;;;;15.68;4.45;;;18.10;78.10;;;;;;5054503;28;20048;-65
2023/10/11 11:59:19;;;;;;;10.88;4.30;;;18.20;78.00;;;;;;5054624;28;20395;-65
2023/10/11 12:01:49;;;;;;;13.88;4.30;;;18.20;78.10;;;;;;5054834;28;20052;-66
2023/10/11 12:04:29;;;;;;;10.17;4.47;;;18.20;78.10;;;;;;5052735;28;20049;-65
2023/10/11 12:07:04;;;;;;;12.73;4.82;;;18.20;78.40;;;;;;5052818;28;20076;-64
2023/10/11 12:09:32;;;;;;;11.40;4.78;;;18.30;77.90;;;;;;5054892;28;20053;-65
2023/10/11 12:12:05;;;;;;;10.00;4.75;;;18.20;77.90;;;;;;5055151;28;20497;-66
2023/10/11 12:14:37;;;;;;;14.38;5.22;;;18.20;78.30;;;;;;5054381;28;20052;-65
2023/10/11 12:17:09;;;;;;;13.82;4.72;;;18.20;78.60;;;;;;5054080;28;20097;-65
2023/10/11 12:19:40;;;;;;;13.75;4.38;;;18.30;78.50;;;;;;5053724;28;20113;-65
2023/10/11 12:22:13;;;;;;;14.00;4.93;;;18.30;78.40;;;;;;5054868;28;20102;-65
2023/10/11 12:24:44;;;;;;;14.13;4.82;;;18.30;78.10;;;;;;5053681;28;20056;-65
2023/10/11 12:27:12;;;;;;;12.00;4.55;;;18.30;78.20;;;;;;5054446;28;20488;-65
2023/10/11 12:29:39;;;;;;;10.13;4.75;;;18.30;78.10;;;;;;5054633;28;20419;-64
2023/10/11 12:32:07;;;;;;;10.60;4.20;;;18.30;78.00;;;;;;5035273;28;20727;-64
2023/10/11 12:34:32;;;;;;;13.75;4.45;;;18.30;77.60;;;;;;5032655;28;20114;-65
2023/10/11 12:37:00;;;;;;;13.23;4.68;;;18.30;77.30;;;;;;5053601;28;20537;-65
2023/10/11 12:39:30;;;;;;;12.40;4.22;;;18.20;77.50;;;;;;5054046;28;20467;-65
2023/10/11 12:41:59;;;;;;;14.18;4.43;;;18.20;77.90;;;;;;5032296;28;20060;-66
2023/10/11 12:44:28;;;;;;;9.25;4.50;;;18.20;78.10;;;;;;5051917;28;20507;-65
2023/10/11 12:46:58;;;;;;;9.07;4.10;;;18.20;78.20;;;;;;5046604;28;20522;-65
2023/10/11 12:49:24;;;;;;;13.15;4.18;;;18.20;78.00;;;;;;5051934;28;20051;-65
2023/10/11 12:51:50;;;;;;;12.60;3.95;;;18.20;77.80;;;;;;5050416;28;20044;-65
2023/10/11 12:54:19;;;;;;;9.75;4.10;;;18.20;77.70;;;;;;5049087;28;20586;-65
2023/10/11 12:56:46;;;;;;;12.40;4.10;;;18.20;77.90;;;;;;5043579;28;20580;-64
2023/10/11 12:59:15;;;;;;;12.95;4.38;;;18.20;77.80;;;;;;5032864;28;20113;-65
2023/10/11 13:01:52;;;;;;;8.20;4.13;;;18.20;78.00;;;;;;5050931;28;20579;-65
2023/10/11 13:04:23;;;;;;;12.35;4.15;;;18.20;78.00;;;;;;5028145;28;20047;-65
2023/10/11 13:06:52;;;;;;;;;;;18.20;78.00;;;;;;5028938;28;20054;-65
2023/10/11 13:09:27;;;;;;;11.40;3.75;;;18.20;77.80;;;;;;5044701;28;20306;-64
2023/10/11 13:11:56;;;;;;;9.95;3.60;;;18.30;77.90;;;;;;5046186;28;20495;-65
2023/10/11 13:14:22;;;;;;;9.48;3.63;;;18.30;77.10;;;;;;5029954;28;20084;-65
2023/10/11 13:16:54;;;;;;;10.15;3.78;;;18.30;77.10;;;;;;5045418;28;20298;-65
2023/10/11 13:19:24;;;;;;;;;;;18.30;77.10;;;;;;5046677;28;20105;-66
2023/10/11 13:21:54;;;;;;;9.80;4.00;;;18.30;76.80;;;;;;5004368;28;19928;-65
2023/10/11 13:24:26;;;;;;;12.55;4.13;;;18.30;77.50;;;;;;5048895;28;20056;-66
2023/10/11 13:26:54;;;;;;;;;;;18.40;77.80;;;;;;5049196;28;20044;-65
2023/10/11 13:29:21;;;;;;;18.20;4.90;;;18.40;78.10;;;;;;5049669;28;19931;-65
2023/10/11 13:31:53;;;;;;;13.25;4.60;;;18.40;78.10;;;;;;5028887;28;20052;-65
2023/10/11 13:34:29;;;;;;;11.40;4.80;;;18.40;78.00;;;;;;5044570;28;20173;-67
2023/10/11 13:36:58;;;;;;;17.50;4.80;;;18.40;77.90;;;;;;5047875;28;20507;-65
2023/10/11 13:39:25;;;;;;;13.30;4.18;;;18.40;77.90;;;;;;5045725;28;20063;-66
2023/10/11 13:42:03;;;;;;;12.50;4.28;;;18.40;77.90;;;;;;5046807;28;20490;-65
2023/10/11 13:44:28;;;;;;;12.27;4.53;;;18.40;77.50;;;;;;5044350;28;20056;-65
2023/10/11 13:46:58;;;;;;;10.57;4.45;;;18.40;77.70;;;;;;5046286;28;20041;-64
2023/10/11 13:49:25;;;;;;;14.85;4.93;;;18.50;77.70;;;;;;5046877;28;20137;-66
2023/10/11 13:51:53;;;;;;;14.45;4.60;;;18.50;77.80;;;;;;5045297;28;20060;-65